Garrison, Montana
Current Conditions -  °F | °C
As of 1:53 PM on Monday 24 Nov 2014 (Local Time) from KHLN Reporting Station
Clear Clear  
Wind Chill: 31°   Ceiling: Unl
Heat Index: 41°   Visibility: 10mi
Dew Point: 16°   Wind: 22mph
Humidity: 36%   Direction: 270°W
Pressure: 30.18"   Gusts: 35mph
Location:  46.52°N, 112.8°W
Report Text: KHLN 242053Z 27019G30KT 10SM CLR 05/M09 A3018 RMK AO2 PK WND 28030/2047 SLP255 T00501089 58002
Loading
Personal Weather Stations






























Interactive Weather Map New forecast layout! Learn more

10-Day Weather Forecast

Advertisements
Track Severe Weather on mobile